sensor_id;sensor_type;location;lat;lon;timestamp;temperature;humidity
6672;DHT22;3372;48.690;12.362;2023-04-03T00:01:00;5.80;41.00
6672;DHT22;3372;48.690;12.362;2023-04-03T00:03:26;5.90;40.30
6672;DHT22;3372;48.690;12.362;2023-04-03T00:05:52;5.90;40.40
6672;DHT22;3372;48.690;12.362;2023-04-03T00:08:18;6.00;40.90
6672;DHT22;3372;48.690;12.362;2023-04-03T00:10:43;6.20;41.60
6672;DHT22;3372;48.690;12.362;2023-04-03T00:13:09;6.20;41.60
6672;DHT22;3372;48.690;12.362;2023-04-03T00:15:36;6.30;41.60
6672;DHT22;3372;48.690;12.362;2023-04-03T00:18:03;6.40;41.00
6672;DHT22;3372;48.690;12.362;2023-04-03T00:20:29;6.40;40.50
6672;DHT22;3372;48.690;12.362;2023-04-03T00:22:55;6.40;40.10
6672;DHT22;3372;48.690;12.362;2023-04-03T00:25:21;6.30;39.40
6672;DHT22;3372;48.690;12.362;2023-04-03T00:27:47;6.30;39.10
6672;DHT22;3372;48.690;12.362;2023-04-03T00:30:14;6.20;40.40
6672;DHT22;3372;48.690;12.362;2023-04-03T00:32:41;5.90;40.30
6672;DHT22;3372;48.690;12.362;2023-04-03T00:35:07;6.00;40.80
6672;DHT22;3372;48.690;12.362;2023-04-03T00:37:33;6.20;41.60
6672;DHT22;3372;48.690;12.362;2023-04-03T00:39:59;6.10;40.40
6672;DHT22;3372;48.690;12.362;2023-04-03T00:42:25;5.90;40.20
6672;DHT22;3372;48.690;12.362;2023-04-03T00:47:22;6.00;41.30
6672;DHT22;3372;48.690;12.362;2023-04-03T00:49:49;6.00;41.00
6672;DHT22;3372;48.690;12.362;2023-04-03T00:52:17;6.00;39.80
6672;DHT22;3372;48.690;12.362;2023-04-03T00:54:46;5.90;40.60
6672;DHT22;3372;48.690;12.362;2023-04-03T00:57:14;5.80;40.50
6672;DHT22;3372;48.690;12.362;2023-04-03T00:59:48;5.80;41.00
6672;DHT22;3372;48.690;12.362;2023-04-03T01:02:15;5.80;40.20
6672;DHT22;3372;48.690;12.362;2023-04-03T01:04:43;5.70;41.00
6672;DHT22;3372;48.690;12.362;2023-04-03T01:07:18;5.60;40.20
6672;DHT22;3372;48.690;12.362;2023-04-03T01:09:47;5.80;41.70
6672;DHT22;3372;48.690;12.362;2023-04-03T01:12:21;5.90;40.60
6672;DHT22;3372;48.690;12.362;2023-04-03T01:14:54;5.90;40.40
6672;DHT22;3372;48.690;12.362;2023-04-03T01:17:40;6.00;39.90
6672;DHT22;3372;48.690;12.362;2023-04-03T01:26:11;6.10;40.40
6672;DHT22;3372;48.690;12.362;2023-04-03T01:28:32;6.00;40.60
6672;DHT22;3372;48.690;12.362;2023-04-03T01:33:28;5.90;40.40
6672;DHT22;3372;48.690;12.362;2023-04-03T01:35:54;5.90;40.20
6672;DHT22;3372;48.690;12.362;2023-04-03T01:38:20;5.80;40.90
6672;DHT22;3372;48.690;12.362;2023-04-03T01:40:46;5.90;41.40
6672;DHT22;3372;48.690;12.362;2023-04-03T01:43:11;6.00;41.50
6672;DHT22;3372;48.690;12.362;2023-04-03T01:45:37;6.10;41.20
6672;DHT22;3372;48.690;12.362;2023-04-03T01:48:03;6.20;41.70
6672;DHT22;3372;48.690;12.362;2023-04-03T01:50:28;6.10;40.60
6672;DHT22;3372;48.690;12.362;2023-04-03T01:52:54;6.10;41.00
6672;DHT22;3372;48.690;12.362;2023-04-03T01:55:20;6.10;40.40
6672;DHT22;3372;48.690;12.362;2023-04-03T01:57:45;6.00;41.10
6672;DHT22;3372;48.690;12.362;2023-04-03T02:00:11;6.10;41.10
6672;DHT22;3372;48.690;12.362;2023-04-03T02:02:38;6.10;41.50
6672;DHT22;3372;48.690;12.362;2023-04-03T02:05:03;6.10;40.40
6672;DHT22;3372;48.690;12.362;2023-04-03T02:07:29;6.20;40.50
6672;DHT22;3372;48.690;12.362;2023-04-03T02:09:55;6.20;40.30
6672;DHT22;3372;48.690;12.362;2023-04-03T02:12:20;6.20;40.00
6672;DHT22;3372;48.690;12.362;2023-04-03T02:14:46;6.30;41.70
6672;DHT22;3372;48.690;12.362;2023-04-03T02:17:12;6.10;40.00
6672;DHT22;3372;48.690;12.362;2023-04-03T02:19:37;6.10;40.50
6672;DHT22;3372;48.690;12.362;2023-04-03T02:22:04;6.20;40.60
6672;DHT22;3372;48.690;12.362;2023-04-03T02:24:30;6.20;40.40
6672;DHT22;3372;48.690;12.362;2023-04-03T02:26:56;6.30;40.50
6672;DHT22;3372;48.690;12.362;2023-04-03T02:29:21;6.30;40.30
6672;DHT22;3372;48.690;12.362;2023-04-03T02:31:47;6.30;40.20
6672;DHT22;3372;48.690;12.362;2023-04-03T02:34:13;6.30;39.80
6672;DHT22;3372;48.690;12.362;2023-04-03T02:36:38;6.20;39.70
6672;DHT22;3372;48.690;12.362;2023-04-03T02:39:04;6.30;39.80
6672;DHT22;3372;48.690;12.362;2023-04-03T02:41:30;6.30;39.90
6672;DHT22;3372;48.690;12.362;2023-04-03T02:44:01;6.30;39.80
6672;DHT22;3372;48.690;12.362;2023-04-03T02:46:27;6.30;39.80
6672;DHT22;3372;48.690;12.362;2023-04-03T02:48:52;6.30;39.40
6672;DHT22;3372;48.690;12.362;2023-04-03T02:51:18;6.20;39.80
6672;DHT22;3372;48.690;12.362;2023-04-03T02:53:43;6.20;40.40
6672;DHT22;3372;48.690;12.362;2023-04-03T02:56:09;6.20;40.30
6672;DHT22;3372;48.690;12.362;2023-04-03T02:58:35;6.30;41.00
6672;DHT22;3372;48.690;12.362;2023-04-03T03:01:01;6.30;40.30
6672;DHT22;3372;48.690;12.362;2023-04-03T03:03:26;6.20;40.70
6672;DHT22;3372;48.690;12.362;2023-04-03T03:06:10;6.20;39.50
6672;DHT22;3372;48.690;12.362;2023-04-03T03:08:36;6.20;40.60
6672;DHT22;3372;48.690;12.362;2023-04-03T03:11:02;6.10;40.10
6672;DHT22;3372;48.690;12.362;2023-04-03T03:13:28;6.20;40.40
6672;DHT22;3372;48.690;12.362;2023-04-03T03:15:53;6.20;40.90
6672;DHT22;3372;48.690;12.362;2023-04-03T03:18:19;6.20;40.90
6672;DHT22;3372;48.690;12.362;2023-04-03T03:20:45;6.30;40.10
6672;DHT22;3372;48.690;12.362;2023-04-03T03:23:10;6.30;40.30
6672;DHT22;3372;48.690;12.362;2023-04-03T03:25:39;6.30;40.10
6672;DHT22;3372;48.690;12.362;2023-04-03T03:28:05;6.10;40.40
6672;DHT22;3372;48.690;12.362;2023-04-03T03:30:31;6.20;40.00
6672;DHT22;3372;48.690;12.362;2023-04-03T03:32:56;6.20;40.50
6672;DHT22;3372;48.690;12.362;2023-04-03T03:35:22;6.30;40.80
6672;DHT22;3372;48.690;12.362;2023-04-03T03:37:47;6.30;40.40
6672;DHT22;3372;48.690;12.362;2023-04-03T03:40:13;6.30;40.10
6672;DHT22;3372;48.690;12.362;2023-04-03T03:42:39;6.30;40.50
6672;DHT22;3372;48.690;12.362;2023-04-03T03:45:05;6.30;40.50
6672;DHT22;3372;48.690;12.362;2023-04-03T03:47:31;6.30;40.40
6672;DHT22;3372;48.690;12.362;2023-04-03T03:49:57;6.20;40.00
6672;DHT22;3372;48.690;12.362;2023-04-03T03:52:22;6.00;39.30
6672;DHT22;3372;48.690;12.362;2023-04-03T03:54:48;5.90;39.70
6672;DHT22;3372;48.690;12.362;2023-04-03T03:57:14;5.90;40.00
6672;DHT22;3372;48.690;12.362;2023-04-03T03:59:40;5.90;40.50
6672;DHT22;3372;48.690;12.362;2023-04-03T04:02:07;5.90;39.70
6672;DHT22;3372;48.690;12.362;2023-04-03T04:04:32;5.90;41.00
6672;DHT22;3372;48.690;12.362;2023-04-03T04:06:58;5.90;40.10
6672;DHT22;3372;48.690;12.362;2023-04-03T04:09:25;6.00;40.50
6672;DHT22;3372;48.690;12.362;2023-04-03T04:11:51;6.00;40.30
6672;DHT22;3372;48.690;12.362;2023-04-03T04:14:17;6.00;40.70
6672;DHT22;3372;48.690;12.362;2023-04-03T04:16:42;6.10;40.50
6672;DHT22;3372;48.690;12.362;2023-04-03T04:19:08;6.10;40.60
6672;DHT22;3372;48.690;12.362;2023-04-03T04:21:33;6.00;40.50
6672;DHT22;3372;48.690;12.362;2023-04-03T04:23:59;6.10;40.20
6672;DHT22;3372;48.690;12.362;2023-04-03T04:26:24;5.80;39.70
6672;DHT22;3372;48.690;12.362;2023-04-03T04:28:50;5.90;41.60
6672;DHT22;3372;48.690;12.362;2023-04-03T04:31:15;5.90;41.30
6672;DHT22;3372;48.690;12.362;2023-04-03T04:33:41;5.90;40.90
6672;DHT22;3372;48.690;12.362;2023-04-03T04:36:07;5.90;40.90
6672;DHT22;3372;48.690;12.362;2023-04-03T04:38:32;5.90;42.00
6672;DHT22;3372;48.690;12.362;2023-04-03T04:40:58;6.00;41.20
6672;DHT22;3372;48.690;12.362;2023-04-03T04:43:23;6.00;41.00
6672;DHT22;3372;48.690;12.362;2023-04-03T04:45:49;5.90;41.40
6672;DHT22;3372;48.690;12.362;2023-04-03T04:48:24;5.90;40.70
6672;DHT22;3372;48.690;12.362;2023-04-03T04:50:50;5.90;42.30
6672;DHT22;3372;48.690;12.362;2023-04-03T04:53:16;6.00;41.50
6672;DHT22;3372;48.690;12.362;2023-04-03T04:55:41;6.00;42.00
6672;DHT22;3372;48.690;12.362;2023-04-03T04:58:08;6.00;42.10
6672;DHT22;3372;48.690;12.362;2023-04-03T05:00:33;6.00;41.90
6672;DHT22;3372;48.690;12.362;2023-04-03T05:02:59;6.00;41.50
6672;DHT22;3372;48.690;12.362;2023-04-03T05:05:24;6.10;41.50
6672;DHT22;3372;48.690;12.362;2023-04-03T05:07:50;6.00;41.30
6672;DHT22;3372;48.690;12.362;2023-04-03T05:10:15;6.10;42.00
6672;DHT22;3372;48.690;12.362;2023-04-03T05:12:41;5.90;41.30
6672;DHT22;3372;48.690;12.362;2023-04-03T05:15:07;5.90;41.30
6672;DHT22;3372;48.690;12.362;2023-04-03T05:17:33;6.00;42.00
6672;DHT22;3372;48.690;12.362;2023-04-03T05:19:58;6.10;41.50
6672;DHT22;3372;48.690;12.362;2023-04-03T05:22:24;6.10;41.40
6672;DHT22;3372;48.690;12.362;2023-04-03T05:24:50;6.10;41.30
6672;DHT22;3372;48.690;12.362;2023-04-03T05:27:15;5.90;40.80
6672;DHT22;3372;48.690;12.362;2023-04-03T05:29:42;5.80;41.30
6672;DHT22;3372;48.690;12.362;2023-04-03T05:32:09;5.80;41.90
6672;DHT22;3372;48.690;12.362;2023-04-03T05:34:35;5.90;42.30
6672;DHT22;3372;48.690;12.362;2023-04-03T05:37:01;6.00;42.00
6672;DHT22;3372;48.690;12.362;2023-04-03T05:39:28;5.90;42.30
6672;DHT22;3372;48.690;12.362;2023-04-03T05:41:54;6.00;43.00
6672;DHT22;3372;48.690;12.362;2023-04-03T05:44:19;5.80;41.80
6672;DHT22;3372;48.690;12.362;2023-04-03T05:46:45;5.90;42.20
6672;DHT22;3372;48.690;12.362;2023-04-03T05:49:11;5.70;42.10
6672;DHT22;3372;48.690;12.362;2023-04-03T05:51:38;5.70;42.50
6672;DHT22;3372;48.690;12.362;2023-04-03T05:54:23;5.70;42.50
6672;DHT22;3372;48.690;12.362;2023-04-03T05:56:50;5.70;41.90
6672;DHT22;3372;48.690;12.362;2023-04-03T05:59:17;5.50;41.80
6672;DHT22;3372;48.690;12.362;2023-04-03T06:01:42;5.40;43.60
6672;DHT22;3372;48.690;12.362;2023-04-03T06:04:08;5.30;44.20
6672;DHT22;3372;48.690;12.362;2023-04-03T06:06:46;5.40;43.80
6672;DHT22;3372;48.690;12.362;2023-04-03T06:09:12;5.30;44.60
6672;DHT22;3372;48.690;12.362;2023-04-03T06:11:37;5.40;44.40
6672;DHT22;3372;48.690;12.362;2023-04-03T06:14:04;5.60;45.00
6672;DHT22;3372;48.690;12.362;2023-04-03T06:16:29;5.60;43.40
6672;DHT22;3372;48.690;12.362;2023-04-03T06:18:55;5.50;43.70
6672;DHT22;3372;48.690;12.362;2023-04-03T06:21:21;5.40;44.10
6672;DHT22;3372;48.690;12.362;2023-04-03T06:23:46;5.60;43.70
6672;DHT22;3372;48.690;12.362;2023-04-03T06:26:12;5.70;43.40
6672;DHT22;3372;48.690;12.362;2023-04-03T06:28:37;5.60;42.90
6672;DHT22;3372;48.690;12.362;2023-04-03T06:31:03;5.70;43.10
6672;DHT22;3372;48.690;12.362;2023-04-03T06:33:28;5.70;42.50
6672;DHT22;3372;48.690;12.362;2023-04-03T06:35:58;5.60;42.50
6672;DHT22;3372;48.690;12.362;2023-04-03T06:38:23;5.60;42.60
6672;DHT22;3372;48.690;12.362;2023-04-03T06:40:49;5.60;42.40
6672;DHT22;3372;48.690;12.362;2023-04-03T06:43:15;5.80;41.90
6672;DHT22;3372;48.690;12.362;2023-04-03T06:45:40;5.90;41.10
6672;DHT22;3372;48.690;12.362;2023-04-03T06:48:06;5.90;40.50
6672;DHT22;3372;48.690;12.362;2023-04-03T06:50:31;6.00;41.00
6672;DHT22;3372;48.690;12.362;2023-04-03T06:52:57;6.00;39.70
6672;DHT22;3372;48.690;12.362;2023-04-03T06:55:23;5.90;39.50
6672;DHT22;3372;48.690;12.362;2023-04-03T06:57:48;5.90;39.40
6672;DHT22;3372;48.690;12.362;2023-04-03T07:00:14;5.80;38.50
6672;DHT22;3372;48.690;12.362;2023-04-03T07:02:41;5.80;40.10
6672;DHT22;3372;48.690;12.362;2023-04-03T07:05:07;5.90;40.60
6672;DHT22;3372;48.690;12.362;2023-04-03T07:07:34;5.90;38.60
6672;DHT22;3372;48.690;12.362;2023-04-03T07:10:00;5.70;37.30
6672;DHT22;3372;48.690;12.362;2023-04-03T07:12:25;5.60;37.50
6672;DHT22;3372;48.690;12.362;2023-04-03T07:14:51;5.50;39.30
6672;DHT22;3372;48.690;12.362;2023-04-03T07:17:17;5.60;37.60
6672;DHT22;3372;48.690;12.362;2023-04-03T07:19:42;5.80;38.50
6672;DHT22;3372;48.690;12.362;2023-04-03T07:22:08;5.90;37.50
6672;DHT22;3372;48.690;12.362;2023-04-03T07:24:34;6.00;37.00
6672;DHT22;3372;48.690;12.362;2023-04-03T07:27:00;5.90;36.00
6672;DHT22;3372;48.690;12.362;2023-04-03T07:29:26;5.90;35.80
6672;DHT22;3372;48.690;12.362;2023-04-03T07:31:52;6.10;35.80
6672;DHT22;3372;48.690;12.362;2023-04-03T07:34:18;6.10;34.00
6672;DHT22;3372;48.690;12.362;2023-04-03T07:36:44;6.10;30.00
6672;DHT22;3372;48.690;12.362;2023-04-03T07:39:09;6.20;28.50
6672;DHT22;3372;48.690;12.362;2023-04-03T07:41:36;6.20;29.90
6672;DHT22;3372;48.690;12.362;2023-04-03T07:44:02;6.20;24.70
6672;DHT22;3372;48.690;12.362;2023-04-03T07:46:28;6.20;26.80
6672;DHT22;3372;48.690;12.362;2023-04-03T07:48:53;6.30;26.20
6672;DHT22;3372;48.690;12.362;2023-04-03T07:51:19;6.40;26.00
6672;DHT22;3372;48.690;12.362;2023-04-03T07:53:45;6.40;23.40
6672;DHT22;3372;48.690;12.362;2023-04-03T07:56:11;6.20;22.30
6672;DHT22;3372;48.690;12.362;2023-04-03T07:58:36;6.20;23.80
6672;DHT22;3372;48.690;12.362;2023-04-03T08:01:02;6.20;23.10
6672;DHT22;3372;48.690;12.362;2023-04-03T08:03:28;6.30;23.10
6672;DHT22;3372;48.690;12.362;2023-04-03T08:05:54;6.20;23.30
6672;DHT22;3372;48.690;12.362;2023-04-03T08:08:23;6.30;23.90
6672;DHT22;3372;48.690;12.362;2023-04-03T08:10:50;6.30;20.90
6672;DHT22;3372;48.690;12.362;2023-04-03T08:13:16;6.50;22.10
6672;DHT22;3372;48.690;12.362;2023-04-03T08:15:42;6.50;22.60
6672;DHT22;3372;48.690;12.362;2023-04-03T08:18:07;6.40;19.50
6672;DHT22;3372;48.690;12.362;2023-04-03T08:20:33;6.50;21.50
6672;DHT22;3372;48.690;12.362;2023-04-03T08:22:58;6.40;21.20
6672;DHT22;3372;48.690;12.362;2023-04-03T08:25:24;6.40;20.80
6672;DHT22;3372;48.690;12.362;2023-04-03T08:27:50;6.70;21.60
6672;DHT22;3372;48.690;12.362;2023-04-03T08:30:16;6.40;19.70
6672;DHT22;3372;48.690;12.362;2023-04-03T08:32:41;6.80;21.60
6672;DHT22;3372;48.690;12.362;2023-04-03T08:35:08;6.60;17.50
6672;DHT22;3372;48.690;12.362;2023-04-03T08:37:38;6.70;18.90
6672;DHT22;3372;48.690;12.362;2023-04-03T08:40:06;6.70;17.80
6672;DHT22;3372;48.690;12.362;2023-04-03T08:45:40;6.50;16.80
6672;DHT22;3372;48.690;12.362;2023-04-03T08:50:44;7.40;14.90
6672;DHT22;3372;48.690;12.362;2023-04-03T08:53:20;7.00;13.80
6672;DHT22;3372;48.690;12.362;2023-04-03T08:55:49;6.90;16.00
6672;DHT22;3372;48.690;12.362;2023-04-03T08:58:21;6.80;16.80
6672;DHT22;3372;48.690;12.362;2023-04-03T09:03:41;6.80;15.90
6672;DHT22;3372;48.690;12.362;2023-04-03T09:06:13;7.30;16.20
6672;DHT22;3372;48.690;12.362;2023-04-03T09:08:50;7.40;15.30
6672;DHT22;3372;48.690;12.362;2023-04-03T09:14:26;7.30;14.30
6672;DHT22;3372;48.690;12.362;2023-04-03T09:17:21;7.30;13.20
6672;DHT22;3372;48.690;12.362;2023-04-03T09:20:17;7.10;14.50
6672;DHT22;3372;48.690;12.362;2023-04-03T09:22:45;7.10;16.10
6672;DHT22;3372;48.690;12.362;2023-04-03T09:25:17;7.40;16.80
6672;DHT22;3372;48.690;12.362;2023-04-03T09:27:44;7.50;15.00
6672;DHT22;3372;48.690;12.362;2023-04-03T09:30:16;7.70;14.50
6672;DHT22;3372;48.690;12.362;2023-04-03T09:32:45;7.60;14.30
6672;DHT22;3372;48.690;12.362;2023-04-03T09:35:20;7.30;14.20
6672;DHT22;3372;48.690;12.362;2023-04-03T09:37:55;7.50;13.80
6672;DHT22;3372;48.690;12.362;2023-04-03T09:40:31;7.70;13.70
6672;DHT22;3372;48.690;12.362;2023-04-03T09:43:00;8.00;14.10
6672;DHT22;3372;48.690;12.362;2023-04-03T09:45:31;7.80;13.00
6672;DHT22;3372;48.690;12.362;2023-04-03T10:05:55;9.60;8.70
6672;DHT22;3372;48.690;12.362;2023-04-03T10:08:35;10.10;9.00
6672;DHT22;3372;48.690;12.362;2023-04-03T10:11:13;10.10;8.00
6672;DHT22;3372;48.690;12.362;2023-04-03T10:13:51;9.50;8.10
6672;DHT22;3372;48.690;12.362;2023-04-03T10:21:58;8.10;9.10
6672;DHT22;3372;48.690;12.362;2023-04-03T10:33:38;8.30;8.40
6672;DHT22;3372;48.690;12.362;2023-04-03T10:42:08;8.90;3.90
6672;DHT22;3372;48.690;12.362;2023-04-03T10:47:22;9.10;4.20
6672;DHT22;3372;48.690;12.362;2023-04-03T10:57:24;9.10;6.10
6672;DHT22;3372;48.690;12.362;2023-04-03T10:59:58;8.70;5.20
6672;DHT22;3372;48.690;12.362;2023-04-03T11:02:34;7.80;4.90
6672;DHT22;3372;48.690;12.362;2023-04-03T11:05:15;8.20;8.30
6672;DHT22;3372;48.690;12.362;2023-04-03T11:07:52;7.90;5.20
6672;DHT22;3372;48.690;12.362;2023-04-03T11:10:25;7.50;6.00
6672;DHT22;3372;48.690;12.362;2023-04-03T11:13:06;7.90;6.10
6672;DHT22;3372;48.690;12.362;2023-04-03T11:15:33;7.90;6.00
6672;DHT22;3372;48.690;12.362;2023-04-03T11:18:10;8.30;6.60
6672;DHT22;3372;48.690;12.362;2023-04-03T11:20:37;8.40;3.50
6672;DHT22;3372;48.690;12.362;2023-04-03T11:23:31;8.50;5.30
6672;DHT22;3372;48.690;12.362;2023-04-03T11:26:12;8.40;3.90
6672;DHT22;3372;48.690;12.362;2023-04-03T11:28:38;8.30;2.90
6672;DHT22;3372;48.690;12.362;2023-04-03T11:31:10;8.50;4.90
6672;DHT22;3372;48.690;12.362;2023-04-03T11:34:04;8.50;3.60
6672;DHT22;3372;48.690;12.362;2023-04-03T11:36:33;8.50;3.60
6672;DHT22;3372;48.690;12.362;2023-04-03T11:39:23;8.50;3.00
6672;DHT22;3372;48.690;12.362;2023-04-03T11:41:51;8.70;2.40
6672;DHT22;3372;48.690;12.362;2023-04-03T11:44:37;8.50;2.00
6672;DHT22;3372;48.690;12.362;2023-04-03T11:47:05;8.80;2.40
6672;DHT22;3372;48.690;12.362;2023-04-03T11:49:51;8.40;2.50
6672;DHT22;3372;48.690;12.362;2023-04-03T12:08:26;8.20;3.40
6672;DHT22;3372;48.690;12.362;2023-04-03T12:13:43;8.00;2.10
6672;DHT22;3372;48.690;12.362;2023-04-03T12:24:32;8.50;1.00
6672;DHT22;3372;48.690;12.362;2023-04-03T12:29:54;8.60;3.30
6672;DHT22;3372;48.690;12.362;2023-04-03T12:51:14;8.30;1.60
6672;DHT22;3372;48.690;12.362;2023-04-03T12:53:40;7.70;1.00
6672;DHT22;3372;48.690;12.362;2023-04-03T12:56:25;7.50;1.00
6672;DHT22;3372;48.690;12.362;2023-04-03T12:58:53;7.70;2.20
6672;DHT22;3372;48.690;12.362;2023-04-03T13:01:24;8.20;2.90
6672;DHT22;3372;48.690;12.362;2023-04-03T13:03:53;8.00;1.00
6672;DHT22;3372;48.690;12.362;2023-04-03T13:06:32;8.30;2.80
6672;DHT22;3372;48.690;12.362;2023-04-03T13:09:01;8.20;1.00
6672;DHT22;3372;48.690;12.362;2023-04-03T13:11:38;8.40;3.70
6672;DHT22;3372;48.690;12.362;2023-04-03T13:14:15;8.50;3.60
6672;DHT22;3372;48.690;12.362;2023-04-03T13:16:41;8.60;2.50
6672;DHT22;3372;48.690;12.362;2023-04-03T13:19:16;8.20;3.40
6672;DHT22;3372;48.690;12.362;2023-04-03T13:21:42;8.10;3.50
6672;DHT22;3372;48.690;12.362;2023-04-03T13:24:09;8.00;3.70
6672;DHT22;3372;48.690;12.362;2023-04-03T13:26:36;7.80;3.60
6672;DHT22;3372;48.690;12.362;2023-04-03T13:29:07;8.30;4.60
6672;DHT22;3372;48.690;12.362;2023-04-03T13:31:43;8.40;4.20
6672;DHT22;3372;48.690;12.362;2023-04-03T13:34:10;8.80;4.40
6672;DHT22;3372;48.690;12.362;2023-04-03T13:41:48;8.50;4.80
6672;DHT22;3372;48.690;12.362;2023-04-03T13:47:23;8.70;4.30
6672;DHT22;3372;48.690;12.362;2023-04-03T13:52:46;8.50;3.60
6672;DHT22;3372;48.690;12.362;2023-04-03T14:03:01;8.80;3.40
6672;DHT22;3372;48.690;12.362;2023-04-03T14:05:26;8.70;4.10
6672;DHT22;3372;48.690;12.362;2023-04-03T14:07:54;8.60;3.50
6672;DHT22;3372;48.690;12.362;2023-04-03T14:10:20;8.60;3.60
6672;DHT22;3372;48.690;12.362;2023-04-03T14:33:28;8.20;4.40
6672;DHT22;3372;48.690;12.362;2023-04-03T14:36:00;8.20;4.30
6672;DHT22;3372;48.690;12.362;2023-04-03T14:38:28;8.20;2.60
6672;DHT22;3372;48.690;12.362;2023-04-03T14:40:54;8.10;4.00
6672;DHT22;3372;48.690;12.362;2023-04-03T14:43:22;7.90;3.20
6672;DHT22;3372;48.690;12.362;2023-04-03T14:45:49;7.90;4.60
6672;DHT22;3372;48.690;12.362;2023-04-03T14:48:24;8.00;4.00
6672;DHT22;3372;48.690;12.362;2023-04-03T14:50:51;8.30;3.40
6672;DHT22;3372;48.690;12.362;2023-04-03T14:53:17;8.50;3.90
6672;DHT22;3372;48.690;12.362;2023-04-03T14:55:46;8.40;3.00
6672;DHT22;3372;48.690;12.362;2023-04-03T14:58:14;8.60;4.00
6672;DHT22;3372;48.690;12.362;2023-04-03T15:00:40;8.00;3.10
6672;DHT22;3372;48.690;12.362;2023-04-03T15:03:12;7.80;3.50
6672;DHT22;3372;48.690;12.362;2023-04-03T15:05:38;7.50;4.50
6672;DHT22;3372;48.690;12.362;2023-04-03T15:08:03;7.50;5.10
6672;DHT22;3372;48.690;12.362;2023-04-03T15:10:30;7.60;6.00
6672;DHT22;3372;48.690;12.362;2023-04-03T15:12:57;7.80;5.70
6672;DHT22;3372;48.690;12.362;2023-04-03T15:15:24;7.80;5.50
6672;DHT22;3372;48.690;12.362;2023-04-03T15:17:54;7.90;5.50
6672;DHT22;3372;48.690;12.362;2023-04-03T15:20:25;8.10;6.00
6672;DHT22;3372;48.690;12.362;2023-04-03T15:22:52;8.10;4.20
6672;DHT22;3372;48.690;12.362;2023-04-03T15:25:17;8.40;5.60
6672;DHT22;3372;48.690;12.362;2023-04-03T15:27:43;8.60;4.50
6672;DHT22;3372;48.690;12.362;2023-04-03T15:30:19;8.70;3.80
6672;DHT22;3372;48.690;12.362;2023-04-03T15:32:45;8.60;1.80
6672;DHT22;3372;48.690;12.362;2023-04-03T15:35:11;8.40;3.80
6672;DHT22;3372;48.690;12.362;2023-04-03T15:37:37;8.20;3.40
6672;DHT22;3372;48.690;12.362;2023-04-03T15:40:04;8.10;3.60
6672;DHT22;3372;48.690;12.362;2023-04-03T15:42:30;8.00;3.40
6672;DHT22;3372;48.690;12.362;2023-04-03T15:44:56;8.10;3.40
6672;DHT22;3372;48.690;12.362;2023-04-03T15:47:22;8.10;4.80
6672;DHT22;3372;48.690;12.362;2023-04-03T15:49:48;8.00;2.70
6672;DHT22;3372;48.690;12.362;2023-04-03T15:52:14;7.70;2.60
6672;DHT22;3372;48.690;12.362;2023-04-03T15:54:39;7.70;4.60
6672;DHT22;3372;48.690;12.362;2023-04-03T15:57:05;7.60;3.30
6672;DHT22;3372;48.690;12.362;2023-04-03T15:59:34;7.70;4.30
6672;DHT22;3372;48.690;12.362;2023-04-03T16:02:01;7.50;4.10
6672;DHT22;3372;48.690;12.362;2023-04-03T16:04:29;7.50;4.30
6672;DHT22;3372;48.690;12.362;2023-04-03T16:06:55;7.40;5.30
6672;DHT22;3372;48.690;12.362;2023-04-03T16:09:21;7.40;2.90
6672;DHT22;3372;48.690;12.362;2023-04-03T16:11:47;7.30;4.70
6672;DHT22;3372;48.690;12.362;2023-04-03T16:14:13;7.10;3.50
6672;DHT22;3372;48.690;12.362;2023-04-03T16:16:39;7.30;4.60
6672;DHT22;3372;48.690;12.362;2023-04-03T16:19:05;7.20;4.60
6672;DHT22;3372;48.690;12.362;2023-04-03T16:21:32;7.10;4.90
6672;DHT22;3372;48.690;12.362;2023-04-03T16:23:59;7.20;3.60
6672;DHT22;3372;48.690;12.362;2023-04-03T16:26:25;7.00;4.30
6672;DHT22;3372;48.690;12.362;2023-04-03T16:28:52;6.80;3.50
6672;DHT22;3372;48.690;12.362;2023-04-03T16:31:18;6.80;3.90
6672;DHT22;3372;48.690;12.362;2023-04-03T16:33:43;7.00;4.60
6672;DHT22;3372;48.690;12.362;2023-04-03T16:36:09;6.80;3.80
6672;DHT22;3372;48.690;12.362;2023-04-03T16:38:35;6.80;4.00
6672;DHT22;3372;48.690;12.362;2023-04-03T16:41:01;6.80;5.90
6672;DHT22;3372;48.690;12.362;2023-04-03T16:43:30;6.70;4.60
6672;DHT22;3372;48.690;12.362;2023-04-03T16:45:56;6.50;4.40
6672;DHT22;3372;48.690;12.362;2023-04-03T16:48:22;6.60;4.60
6672;DHT22;3372;48.690;12.362;2023-04-03T16:50:49;6.60;5.20
6672;DHT22;3372;48.690;12.362;2023-04-03T16:53:18;6.60;6.20
6672;DHT22;3372;48.690;12.362;2023-04-03T16:55:43;6.40;4.60
6672;DHT22;3372;48.690;12.362;2023-04-03T16:58:09;6.40;6.00
6672;DHT22;3372;48.690;12.362;2023-04-03T17:00:36;6.40;5.90
6672;DHT22;3372;48.690;12.362;2023-04-03T17:03:02;6.30;5.50
6672;DHT22;3372;48.690;12.362;2023-04-03T17:05:28;6.20;4.20
6672;DHT22;3372;48.690;12.362;2023-04-03T17:07:55;6.30;5.50
6672;DHT22;3372;48.690;12.362;2023-04-03T17:10:21;6.30;5.40
6672;DHT22;3372;48.690;12.362;2023-04-03T17:12:47;6.20;5.20
6672;DHT22;3372;48.690;12.362;2023-04-03T17:15:12;6.30;6.00
6672;DHT22;3372;48.690;12.362;2023-04-03T17:17:41;6.10;5.90
6672;DHT22;3372;48.690;12.362;2023-04-03T17:20:07;5.80;5.60
6672;DHT22;3372;48.690;12.362;2023-04-03T17:22:33;5.90;6.60
6672;DHT22;3372;48.690;12.362;2023-04-03T17:24:58;6.00;5.80
6672;DHT22;3372;48.690;12.362;2023-04-03T17:27:24;6.00;6.90
6672;DHT22;3372;48.690;12.362;2023-04-03T17:29:50;5.90;5.60
6672;DHT22;3372;48.690;12.362;2023-04-03T17:32:15;6.00;6.70
6672;DHT22;3372;48.690;12.362;2023-04-03T17:34:41;5.80;6.80
6672;DHT22;3372;48.690;12.362;2023-04-03T17:37:07;5.80;6.90
6672;DHT22;3372;48.690;12.362;2023-04-03T17:39:32;5.90;7.00
6672;DHT22;3372;48.690;12.362;2023-04-03T17:41:58;5.80;7.70
6672;DHT22;3372;48.690;12.362;2023-04-03T17:44:25;5.90;8.30
6672;DHT22;3372;48.690;12.362;2023-04-03T17:46:51;5.70;7.80
6672;DHT22;3372;48.690;12.362;2023-04-03T17:49:17;5.60;9.50
6672;DHT22;3372;48.690;12.362;2023-04-03T17:51:44;5.60;8.40
6672;DHT22;3372;48.690;12.362;2023-04-03T17:54:10;5.60;9.20
6672;DHT22;3372;48.690;12.362;2023-04-03T17:56:36;5.40;9.40
6672;DHT22;3372;48.690;12.362;2023-04-03T17:59:02;5.40;9.90
6672;DHT22;3372;48.690;12.362;2023-04-03T18:01:31;5.50;9.80
6672;DHT22;3372;48.690;12.362;2023-04-03T18:03:59;5.60;9.70
6672;DHT22;3372;48.690;12.362;2023-04-03T18:06:32;5.40;8.00
6672;DHT22;3372;48.690;12.362;2023-04-03T18:11:39;5.10;8.20
6672;DHT22;3372;48.690;12.362;2023-04-03T18:14:06;5.10;8.40
6672;DHT22;3372;48.690;12.362;2023-04-03T18:16:32;5.20;8.80
6672;DHT22;3372;48.690;12.362;2023-04-03T18:18:58;5.10;8.10
6672;DHT22;3372;48.690;12.362;2023-04-03T18:21:24;5.00;8.40
6672;DHT22;3372;48.690;12.362;2023-04-03T18:23:52;5.00;9.00
6672;DHT22;3372;48.690;12.362;2023-04-03T18:26:19;5.20;8.90
6672;DHT22;3372;48.690;12.362;2023-04-03T18:28:51;5.30;9.30
6672;DHT22;3372;48.690;12.362;2023-04-03T18:31:17;5.30;7.90
6672;DHT22;3372;48.690;12.362;2023-04-03T18:33:44;5.30;8.60
6672;DHT22;3372;48.690;12.362;2023-04-03T18:36:10;5.40;8.00
6672;DHT22;3372;48.690;12.362;2023-04-03T18:38:37;5.40;8.50
6672;DHT22;3372;48.690;12.362;2023-04-03T18:41:04;5.50;9.00
6672;DHT22;3372;48.690;12.362;2023-04-03T18:43:31;5.50;8.60
6672;DHT22;3372;48.690;12.362;2023-04-03T18:45:57;5.40;8.60
6672;DHT22;3372;48.690;12.362;2023-04-03T18:48:22;5.50;8.80
6672;DHT22;3372;48.690;12.362;2023-04-03T18:50:49;5.60;9.20
6672;DHT22;3372;48.690;12.362;2023-04-03T18:53:14;5.50;8.20